createdAt,value
2022-11-09T00:00:57.447Z,10.525208
2022-11-09T00:04:22.718Z,10.525208
2022-11-09T00:07:47.932Z,10.545349
2022-11-09T00:11:13.166Z,10.525208
2022-11-09T00:14:38.359Z,10.525208
2022-11-09T00:18:03.632Z,10.55542
2022-11-09T00:21:28.894Z,10.625916
2022-11-09T00:24:54.162Z,10.696411
2022-11-09T00:28:19.467Z,10.756836
2022-11-09T00:31:44.687Z,10.80719
2022-11-09T00:35:09.936Z,10.847473
2022-11-09T00:38:35.243Z,10.907898
2022-11-09T00:42:00.443Z,10.907898
2022-11-09T00:45:25.731Z,10.958252
2022-11-09T00:48:50.947Z,10.958252
2022-11-09T00:52:16.209Z,11.028748
2022-11-09T00:55:41.442Z,11.05896
2022-11-09T00:59:06.726Z,11.028748
2022-11-09T01:02:31.972Z,10.998535
2022-11-09T01:05:57.206Z,11.028748
2022-11-09T01:09:22.430Z,11.109314
2022-11-09T01:12:47.674Z,11.18988
2022-11-09T01:16:12.927Z,11.210022
2022-11-09T01:19:38.262Z,11.210022
2022-11-09T01:23:03.477Z,11.250305
2022-11-09T01:26:28.766Z,11.270447
2022-11-09T01:29:54.017Z,11.17981
2022-11-09T01:33:19.548Z,11.139526
2022-11-09T01:36:44.653Z,11.099243
2022-11-09T01:40:09.793Z,11.05896
2022-11-09T01:43:35.016Z,10.998535
2022-11-09T01:47:00.256Z,10.887756
2022-11-09T01:50:25.482Z,10.80719
2022-11-09T01:53:50.777Z,10.787048
2022-11-09T01:57:15.987Z,10.776978
2022-11-09T02:00:41.190Z,10.696411
2022-11-09T02:04:06.461Z,10.67627
2022-11-09T02:07:31.772Z,10.656128
2022-11-09T02:10:57.057Z,10.635986
2022-11-09T02:14:22.323Z,10.625916
2022-11-09T02:17:47.552Z,10.55542
2022-11-09T02:21:12.873Z,10.484924
2022-11-09T02:24:38.072Z,10.515137
2022-11-09T02:28:03.371Z,10.515137
2022-11-09T02:31:28.599Z,10.484924
2022-11-09T02:34:53.821Z,10.505066
2022-11-09T02:38:19.049Z,10.474854
2022-11-09T02:41:44.309Z,10.454712
2022-11-09T02:45:09.621Z,10.404358
2022-11-09T02:48:34.840Z,10.364075
2022-11-09T02:52:00.059Z,10.364075
2022-11-09T02:55:25.312Z,10.384216
2022-11-09T02:58:50.524Z,10.4245
2022-11-09T03:02:15.761Z,10.505066
2022-11-09T03:05:40.956Z,10.545349
2022-11-09T03:09:06.208Z,10.635986
2022-11-09T03:12:31.441Z,10.656128
2022-11-09T03:15:56.656Z,10.666199
2022-11-09T03:19:21.952Z,10.635986
2022-11-09T03:22:47.093Z,10.635986
2022-11-09T03:26:12.320Z,10.666199
2022-11-09T03:29:37.546Z,10.656128
2022-11-09T03:33:02.818Z,10.656128
2022-11-09T03:36:28.085Z,10.595703
2022-11-09T03:39:53.280Z,10.505066
2022-11-09T03:43:18.860Z,10.484924
2022-11-09T03:46:43.767Z,10.4245
2022-11-09T03:50:08.995Z,10.4245
2022-11-09T03:53:34.228Z,10.454712
2022-11-09T03:56:59.446Z,10.444641
2022-11-09T04:00:24.675Z,10.444641
2022-11-09T04:03:49.898Z,10.384216
2022-11-09T04:07:15.197Z,10.414429
2022-11-09T04:10:40.345Z,10.414429
2022-11-09T04:14:05.527Z,10.414429
2022-11-09T04:17:30.770Z,10.384216
2022-11-09T04:20:55.981Z,10.343933
2022-11-09T04:24:21.224Z,10.404358
2022-11-09T04:27:46.524Z,10.343933
2022-11-09T04:31:11.757Z,10.333862
2022-11-09T04:34:37.067Z,10.384216
2022-11-09T04:38:02.304Z,10.343933
2022-11-09T04:41:27.564Z,10.333862
2022-11-09T04:44:52.880Z,10.253296
2022-11-09T04:48:18.109Z,10.152588
2022-11-09T04:51:43.357Z,10.202942
2022-11-09T04:55:08.597Z,10.202942
2022-11-09T04:58:33.866Z,10.202942
2022-11-09T05:01:59.148Z,10.253296
2022-11-09T05:05:24.403Z,10.253296
2022-11-09T05:08:49.655Z,10.263367
2022-11-09T05:12:14.901Z,10.253296
2022-11-09T05:15:40.161Z,10.273438
2022-11-09T05:19:05.767Z,10.333862
2022-11-09T05:22:31.023Z,10.333862
2022-11-09T05:25:56.276Z,10.263367
2022-11-09T05:29:21.562Z,10.202942
2022-11-09T05:32:47.725Z,10.172729
2022-11-09T05:36:12.981Z,10.142517
2022-11-09T05:39:38.216Z,10.112305
2022-11-09T05:43:03.500Z,10.082092
2022-11-09T05:46:28.711Z,10.072021
2022-11-09T05:49:53.933Z,10.021667
2022-11-09T05:53:19.467Z,10.082092
2022-11-09T05:56:44.449Z,10.112305
2022-11-09T06:00:11.043Z,10.152588
2022-11-09T06:03:34.899Z,10.1828
2022-11-09T06:07:00.261Z,10.223083
2022-11-09T06:10:25.499Z,10.202942
2022-11-09T06:13:50.697Z,10.152588
2022-11-09T06:17:15.965Z,10.021667
2022-11-09T06:20:41.259Z,9.961243
2022-11-09T06:24:06.508Z,9.910889
2022-11-09T06:27:31.797Z,9.890747
2022-11-09T06:30:57.029Z,9.830322
2022-11-09T06:34:22.273Z,9.790039
2022-11-09T06:37:47.500Z,9.739685
2022-11-09T06:41:12.760Z,9.739685
2022-11-09T06:44:38.089Z,9.739685
2022-11-09T06:48:03.188Z,9.739685
2022-11-09T06:51:28.471Z,9.649048
2022-11-09T06:54:53.725Z,9.608765
2022-11-09T06:58:18.951Z,9.608765
2022-11-09T07:01:44.242Z,9.649048
2022-11-09T07:05:09.411Z,9.608765
2022-11-09T07:08:34.644Z,9.608765
2022-11-09T07:11:59.875Z,9.689331
2022-11-09T07:15:25.163Z,9.659119
2022-11-09T07:18:50.416Z,9.649048
2022-11-09T07:22:15.620Z,9.67926
2022-11-09T07:25:40.847Z,9.578552
2022-11-09T07:29:06.067Z,9.608765
2022-11-09T07:32:54.052Z,9.598694
2022-11-09T07:35:56.557Z,9.608765
2022-11-09T07:39:21.741Z,9.578552
2022-11-09T07:42:46.980Z,9.649048
2022-11-09T07:46:12.373Z,9.608765
2022-11-09T07:49:37.509Z,9.638977
2022-11-09T07:53:02.777Z,9.649048
2022-11-09T07:56:27.995Z,9.638977
2022-11-09T07:59:53.211Z,9.638977
2022-11-09T08:03:19.992Z,9.67926
2022-11-09T08:06:45.036Z,9.649048
2022-11-09T08:10:10.326Z,9.638977
2022-11-09T08:13:35.539Z,9.608765
2022-11-09T08:17:00.805Z,9.67926
2022-11-09T08:20:26.062Z,9.689331
2022-11-09T08:23:51.413Z,9.67926
2022-11-09T08:27:16.690Z,9.719543
2022-11-09T08:30:41.925Z,9.790039
2022-11-09T08:34:07.207Z,9.830322
2022-11-09T08:37:32.483Z,9.900818
2022-11-09T08:40:57.783Z,9.941101
2022-11-09T08:44:23.075Z,10.011597
2022-11-09T08:47:48.313Z,10.092163
2022-11-09T08:51:13.585Z,10.092163
2022-11-09T08:54:38.853Z,9.991455
2022-11-09T08:58:04.114Z,9.991455
2022-11-09T09:01:29.450Z,10.011597
2022-11-09T09:04:54.628Z,10.072021
2022-11-09T09:08:20.194Z,10.152588
2022-11-09T09:11:45.159Z,10.202942
2022-11-09T09:15:10.449Z,10.263367
2022-11-09T09:18:35.808Z,10.293579
2022-11-09T09:22:00.994Z,10.323792
2022-11-09T09:25:26.249Z,10.4245
2022-11-09T09:28:51.511Z,10.484924
2022-11-09T09:32:16.764Z,10.635986
2022-11-09T09:35:42.050Z,10.726624
2022-11-09T09:39:07.251Z,10.726624
2022-11-09T09:42:32.465Z,10.666199
2022-11-09T09:45:57.699Z,10.696411
2022-11-09T09:49:22.925Z,10.656128
2022-11-09T09:53:04.967Z,10.696411
2022-11-09T09:56:13.371Z,10.787048
2022-11-09T09:59:38.618Z,10.857544
2022-11-09T10:03:03.848Z,10.787048
2022-11-09T10:06:29.096Z,10.847473
2022-11-09T10:09:54.304Z,10.837402
2022-11-09T10:13:19.507Z,10.917969
2022-11-09T10:16:44.769Z,11.018677
2022-11-09T10:20:10.001Z,11.038818
2022-11-09T10:23:35.214Z,11.210022
2022-11-09T10:27:00.557Z,11.149597
2022-11-09T10:30:25.721Z,11.17981
2022-11-09T10:33:50.931Z,11.18988
2022-11-09T10:37:16.150Z,11.149597
2022-11-09T10:40:41.361Z,11.089172
2022-11-09T10:44:06.759Z,11.069031
2022-11-09T10:47:31.992Z,11.05896
2022-11-09T10:50:57.456Z,11.099243
2022-11-09T10:54:22.745Z,11.17981
2022-11-09T10:57:47.962Z,11.17981
2022-11-09T11:01:13.371Z,11.18988
2022-11-09T11:04:38.518Z,11.169739
2022-11-09T11:08:03.830Z,11.250305
2022-11-09T11:11:34.107Z,11.270447
2022-11-09T11:14:54.401Z,11.330872
2022-11-09T11:18:19.714Z,11.320801
2022-11-09T11:21:44.908Z,11.351013
2022-11-09T11:25:10.226Z,11.371155
2022-11-09T11:28:35.445Z,11.391296
2022-11-09T11:32:00.790Z,11.512146
2022-11-09T11:35:26.039Z,11.582642
2022-11-09T11:38:51.249Z,11.582642
2022-11-09T11:42:16.614Z,11.703491
2022-11-09T11:45:42.598Z,11.784058
2022-11-09T11:49:07.700Z,11.753845
2022-11-09T11:52:33.522Z,11.753845
2022-11-09T11:55:59.167Z,11.753845
2022-11-09T11:59:24.591Z,11.733704
2022-11-09T12:02:50.232Z,11.622925
2022-11-09T12:06:15.692Z,11.673279
2022-11-09T12:09:41.183Z,11.733704
2022-11-09T12:13:06.714Z,11.602783
2022-11-09T12:16:32.269Z,11.552429
2022-11-09T12:19:57.784Z,11.622925
2022-11-09T12:23:23.556Z,11.622925
2022-11-09T12:26:59.794Z,11.522217
2022-11-09T12:30:14.682Z,11.492004
2022-11-09T12:33:43.169Z,11.43158
2022-11-09T12:37:05.447Z,11.471863
2022-11-09T12:40:30.710Z,11.471863
2022-11-09T12:43:55.987Z,11.492004
2022-11-09T12:47:21.224Z,11.512146
2022-11-09T12:50:46.488Z,11.522217
2022-11-09T12:54:11.845Z,11.522217
2022-11-09T12:57:37.065Z,11.512146
2022-11-09T13:01:02.400Z,11.522217
2022-11-09T13:04:27.588Z,11.461792
2022-11-09T13:07:52.853Z,11.43158
2022-11-09T13:11:18.118Z,11.552429
2022-11-09T13:14:43.382Z,11.572571
2022-11-09T13:18:08.694Z,11.572571
2022-11-09T13:21:33.941Z,11.612854
2022-11-09T13:24:59.212Z,11.673279
2022-11-09T13:28:24.488Z,11.733704
2022-11-09T13:31:49.805Z,11.854553
2022-11-09T13:35:15.116Z,11.94519
2022-11-09T13:38:40.390Z,11.955261
2022-11-09T13:42:05.684Z,12.015686
2022-11-09T13:45:31.014Z,12.015686
2022-11-09T13:48:56.305Z,11.904907
2022-11-09T13:52:21.606Z,11.824341
2022-11-09T13:55:46.893Z,11.763916
2022-11-09T13:59:12.186Z,11.794128
2022-11-09T14:02:37.473Z,11.784058
2022-11-09T14:06:02.769Z,11.763916
2022-11-09T14:09:28.092Z,11.763916
2022-11-09T14:12:53.339Z,11.784058
2022-11-09T14:16:18.612Z,11.794128
2022-11-09T14:19:43.893Z,11.784058
2022-11-09T14:23:09.174Z,11.784058
2022-11-09T14:26:34.514Z,11.794128
2022-11-09T14:29:59.980Z,11.784058
2022-11-09T15:05:38.888Z,11.69342
2022-11-09T15:09:04.071Z,11.612854
2022-11-09T15:12:29.377Z,11.612854
2022-11-09T15:15:54.677Z,11.612854
2022-11-09T15:19:19.961Z,11.653137
2022-11-09T15:22:45.379Z,11.723633
2022-11-09T15:26:10.563Z,11.763916
2022-11-09T15:29:35.888Z,11.753845
2022-11-09T15:33:01.188Z,11.733704
2022-11-09T15:36:26.497Z,11.763916
2022-11-09T15:39:51.881Z,11.753845
2022-11-09T15:43:17.040Z,11.784058
2022-11-09T15:46:42.315Z,11.784058
2022-11-09T15:50:07.580Z,11.784058
2022-11-09T15:53:32.851Z,11.723633
2022-11-09T15:56:58.194Z,11.733704
2022-11-09T16:00:23.450Z,11.784058
2022-11-09T16:03:48.709Z,11.834412
2022-11-09T16:07:14.000Z,11.884766
2022-11-09T16:10:39.264Z,11.884766
2022-11-09T16:14:04.539Z,11.904907
2022-11-09T16:17:29.781Z,11.914978
2022-11-09T16:20:55.047Z,11.94519
2022-11-09T16:24:20.379Z,11.94519
2022-11-09T16:27:50.471Z,11.914978
2022-11-09T16:31:11.134Z,11.914978
2022-11-09T16:34:36.385Z,11.914978
2022-11-09T16:38:01.663Z,11.854553
2022-11-09T16:41:26.906Z,11.854553
2022-11-09T16:44:52.160Z,11.834412
2022-11-09T16:48:17.617Z,11.914978
2022-11-09T16:51:42.744Z,11.93512
2022-11-09T16:55:08.080Z,11.955261
2022-11-09T16:58:33.420Z,11.93512
2022-11-09T17:01:58.701Z,11.914978
2022-11-09T17:05:23.967Z,11.914978
2022-11-09T17:08:49.202Z,11.94519
2022-11-09T17:12:14.453Z,11.985474
2022-11-09T17:15:39.733Z,12.005615
2022-11-09T17:19:05.014Z,11.904907
2022-11-09T17:22:30.321Z,11.854553
2022-11-09T17:25:55.554Z,11.804199
2022-11-09T17:29:20.868Z,11.834412
2022-11-09T17:32:46.138Z,11.804199
2022-11-09T17:36:11.411Z,11.834412
2022-11-09T17:39:36.751Z,11.824341
2022-11-09T17:43:02.016Z,11.794128
2022-11-09T17:46:27.283Z,11.824341
2022-11-09T17:49:52.612Z,11.884766
2022-11-09T17:53:17.891Z,11.884766
2022-11-09T17:56:43.214Z,11.904907
2022-11-09T18:00:08.504Z,11.904907
2022-11-09T18:03:33.809Z,11.93512
2022-11-09T18:06:59.136Z,11.904907
2022-11-09T18:10:24.729Z,11.955261
2022-11-09T18:13:50.184Z,11.94519
2022-11-09T18:17:15.606Z,11.94519
2022-11-09T18:20:41.048Z,11.94519
2022-11-09T18:24:06.482Z,11.975403
2022-11-09T18:27:31.933Z,11.94519
2022-11-09T18:30:57.380Z,11.955261
2022-11-09T18:34:22.811Z,11.93512
2022-11-09T18:37:48.265Z,11.94519
2022-11-09T18:41:13.717Z,11.904907
2022-11-09T18:44:39.145Z,11.914978
2022-11-09T18:48:04.603Z,11.864624
2022-11-09T18:51:30.028Z,11.834412
2022-11-09T18:54:55.546Z,11.864624
2022-11-09T18:58:21.233Z,11.854553
2022-11-09T19:01:46.381Z,11.854553
2022-11-09T19:05:11.833Z,11.804199
2022-11-09T19:08:37.350Z,11.824341
2022-11-09T19:12:04.406Z,11.784058
2022-11-09T19:15:30.139Z,11.673279
2022-11-09T19:18:55.871Z,11.512146
2022-11-09T19:22:21.664Z,11.290588
2022-11-09T19:25:47.413Z,11.250305
2022-11-09T19:29:13.541Z,11.250305
2022-11-09T19:32:58.181Z,11.210022
2022-11-09T19:36:29.976Z,11.220093
2022-11-09T19:39:49.978Z,11.169739
2022-11-09T19:43:15.722Z,11.149597
2022-11-09T19:46:41.536Z,11.109314
2022-11-09T19:50:07.340Z,11.139526
2022-11-09T19:53:33.236Z,11.17981
2022-11-09T19:56:58.927Z,11.139526
2022-11-09T20:00:24.460Z,11.109314
2022-11-09T20:04:10.331Z,11.17981
2022-11-09T20:07:33.316Z,11.139526
2022-11-09T20:10:58.646Z,11.109314
2022-11-09T20:14:24.015Z,11.139526
2022-11-09T20:17:49.328Z,11.17981
2022-11-09T20:21:14.852Z,11.210022
2022-11-09T20:24:40.211Z,11.149597
2022-11-09T20:28:05.532Z,11.149597
2022-11-09T20:31:30.912Z,11.169739
2022-11-09T20:34:56.199Z,11.169739
2022-11-09T20:38:21.852Z,11.089172
2022-11-09T20:41:46.872Z,11.038818
2022-11-09T20:45:12.216Z,11.018677
2022-11-09T20:48:53.166Z,11.038818
2022-11-09T20:52:02.878Z,11.028748
2022-11-09T20:55:28.255Z,11.038818
2022-11-09T20:58:53.596Z,11.069031
2022-11-09T21:02:19.011Z,11.018677
2022-11-09T21:05:47.870Z,11.018677
2022-11-09T21:09:09.726Z,11.069031
2022-11-09T21:12:35.052Z,11.038818
2022-11-09T21:16:00.414Z,10.907898
2022-11-09T21:19:25.739Z,10.857544
2022-11-09T21:22:51.097Z,10.887756
2022-11-09T21:26:16.434Z,10.917969
2022-11-09T21:29:41.831Z,10.917969
2022-11-09T21:33:07.136Z,10.907898
2022-11-09T21:36:32.481Z,10.877686
2022-11-09T21:39:57.888Z,10.877686
2022-11-09T21:43:23.375Z,10.80719
2022-11-09T21:46:48.324Z,10.80719
2022-11-09T21:50:13.553Z,10.787048
2022-11-09T21:53:38.764Z,10.80719
2022-11-09T21:57:04.041Z,10.857544
2022-11-09T22:00:29.243Z,10.907898
2022-11-09T22:03:54.478Z,10.958252
2022-11-09T22:07:19.700Z,10.93811
2022-11-09T22:10:44.939Z,10.958252
2022-11-09T22:14:10.182Z,10.958252
2022-11-09T22:17:35.366Z,10.917969
2022-11-09T22:21:00.617Z,10.958252
2022-11-09T22:24:25.836Z,10.917969
2022-11-09T22:27:51.048Z,10.847473
2022-11-09T22:31:16.414Z,10.817261
2022-11-09T22:34:41.626Z,10.787048
2022-11-09T22:38:06.884Z,10.756836
2022-11-09T22:41:32.110Z,10.736694
2022-11-09T22:44:57.338Z,10.726624
2022-11-09T22:48:22.561Z,10.776978
2022-11-09T22:51:47.771Z,10.837402
2022-11-09T22:55:13.010Z,10.847473
2022-11-09T22:58:38.234Z,10.907898
2022-11-09T23:02:03.484Z,10.847473
2022-11-09T23:05:28.751Z,10.887756
2022-11-09T23:08:53.932Z,10.887756
2022-11-09T23:12:19.179Z,10.877686
2022-11-09T23:15:44.405Z,10.907898
2022-11-09T23:19:09.655Z,10.907898
2022-11-09T23:22:34.901Z,10.93811
2022-11-09T23:26:00.093Z,10.93811
2022-11-09T23:29:25.328Z,10.887756
2022-11-09T23:32:50.539Z,10.907898
2022-11-09T23:36:15.774Z,10.887756
2022-11-09T23:39:41.048Z,10.857544
2022-11-09T23:43:06.240Z,10.877686
2022-11-09T23:46:31.470Z,10.917969
2022-11-09T23:49:56.683Z,10.857544
2022-11-09T23:53:22.139Z,10.857544
2022-11-09T23:56:47.147Z,10.837402
